Time;durP1;ratioP1;P1;durP2;ratioP2;P2;SDS_P1;SDS_P2;PMS_P1;PMS_P2;Temp;Humidity;BMP_temperature;BMP_pressure;BME280_temperature;BME280_humidity;BME280_pressure;Samples;Min_cycle;Max_cycle;Signal;HPM_P1;HPM_P2
2022/04/09 00:02:04;;;;;;;;;;;4.90;99.90;;;;;;5095710;28;20283;-49
2022/04/09 00:04:29;;;;;;;;;;;5.00;99.90;;;;;;5095492;28;19908;-46
2022/04/09 00:06:55;;;;;;;;;;;5.00;99.90;;;;;;5094884;28;19962;-47
2022/04/09 00:09:20;;;;;;;;;;;5.00;99.90;;;;;;5095272;28;19908;-48
2022/04/09 00:11:46;;;;;;;;;;;5.00;99.90;;;;;;5094895;28;19908;-48
2022/04/09 00:14:12;;;;;;;;;;;5.00;99.90;;;;;;5095214;28;19916;-48
2022/04/09 00:16:38;;;;;;;;;;;5.00;99.90;;;;;;5095654;28;19910;-46
2022/04/09 00:19:04;;;;;;;;;;;5.00;99.90;;;;;;5094576;28;19912;-48
2022/04/09 00:21:30;;;;;;;;;;;5.10;99.90;;;;;;5094900;28;20255;-48
2022/04/09 00:23:56;;;;;;;;;;;5.00;99.90;;;;;;5094889;28;19923;-49
2022/04/09 00:26:21;;;;;;;;;;;5.00;99.90;;;;;;5093816;28;19949;-51
2022/04/09 00:28:47;;;;;;;;;;;5.00;99.90;;;;;;5095293;28;19908;-48
2022/04/09 00:31:12;;;;;;;;;;;4.90;99.90;;;;;;5095112;28;19915;-49
2022/04/09 00:33:38;;;;;;;;;;;4.90;99.90;;;;;;5094175;28;19916;-46
2022/04/09 00:36:03;;;;;;;;;;;4.80;99.90;;;;;;5094783;28;20341;-49
2022/04/09 00:38:29;;;;;;;;;;;4.80;99.90;;;;;;5094894;28;20276;-51
2022/04/09 00:40:55;;;;;;;;;;;4.80;99.90;;;;;;5094225;28;19942;-49
2022/04/09 00:43:21;;;;;;;;;;;4.70;99.90;;;;;;5094630;28;19912;-51
2022/04/09 00:45:47;;;;;;;;;;;4.70;99.90;;;;;;5095053;28;19908;-50
2022/04/09 00:48:12;;;;;;;;;;;4.70;99.90;;;;;;5093849;28;19951;-48
2022/04/09 00:50:38;;;;;;;;;;;4.60;99.90;;;;;;5094260;28;19919;-48
2022/04/09 00:53:05;;;;;;;;;;;4.60;99.90;;;;;;5094695;28;19920;-48
2022/04/09 00:58:16;;;;;;;;;;;4.60;99.90;;;;;;5094665;28;19919;-52
2022/04/09 01:00:42;;;;;;;;;;;4.70;99.90;;;;;;5094512;28;20316;-48
2022/04/09 01:03:10;;;;;;;;;;;4.70;99.90;;;;;;5093570;28;19908;-47
2022/04/09 01:05:36;;;;;;;;;;;4.70;99.90;;;;;;5094479;28;19908;-50
2022/04/09 01:08:03;;;;;;;;;;;4.80;99.90;;;;;;5093592;28;19915;-50
2022/04/09 01:10:28;;;;;;;;;;;4.80;99.90;;;;;;5094133;28;19908;-52
2022/04/09 01:12:54;;;;;;;;;;;4.80;99.90;;;;;;5094196;28;20080;-50
2022/04/09 01:15:19;;;;;;;;;;;4.90;99.90;;;;;;5093349;28;19969;-47
2022/04/09 01:17:45;;;;;;;;;;;5.00;99.90;;;;;;5094275;28;19913;-48
2022/04/09 01:20:17;;;;;;;;;;;5.00;99.90;;;;;;5093719;28;19915;-50
2022/04/09 01:22:43;;;;;;;;;;;4.90;99.90;;;;;;5093011;28;19919;-50
2022/04/09 01:25:08;;;;;;;;;;;4.80;99.90;;;;;;5094021;28;19912;-48
2022/04/09 01:27:34;;;;;;;;;;;4.80;99.90;;;;;;5094005;28;19961;-48
2022/04/09 01:29:59;;;;;;;;;;;4.70;99.90;;;;;;5093162;28;19947;-49
2022/04/09 01:32:25;;;;;;;;;;;4.70;99.90;;;;;;5093840;28;20362;-52
2022/04/09 01:34:52;;;;;;;;;;;4.60;99.90;;;;;;5094076;28;19955;-52
2022/04/09 01:37:18;;;;;;;;;;;4.50;99.90;;;;;;5092403;28;19920;-48
2022/04/09 01:39:43;;;;;;;;;;;4.50;99.90;;;;;;5093032;28;20446;-49
2022/04/09 01:42:10;;;;;;;;;;;4.40;99.90;;;;;;5093396;28;20112;-50
2022/04/09 01:44:36;;;;;;;;;;;4.40;99.90;;;;;;5092935;28;20295;-53
2022/04/09 01:47:02;;;;;;;;;;;4.40;99.90;;;;;;5093738;28;19919;-51
2022/04/09 01:49:27;;;;;;;;;;;4.40;99.90;;;;;;5093613;28;19915;-51
2022/04/09 01:51:52;;;;;;;;;;;4.30;99.90;;;;;;5093141;28;19953;-53
2022/04/09 01:54:18;;;;;;;;;;;4.40;99.90;;;;;;5093381;28;20003;-53
2022/04/09 01:56:43;;;;;;;;;;;4.40;99.90;;;;;;5093422;28;19954;-48
2022/04/09 01:59:09;;;;;;;;;;;4.40;99.90;;;;;;5092690;28;20405;-51
2022/04/09 02:01:34;;;;;;;;;;;4.40;99.90;;;;;;5092945;28;20290;-49
2022/04/09 02:04:00;;;;;;;;;;;4.40;99.90;;;;;;5093376;28;19908;-50
2022/04/09 02:06:25;;;;;;;;;;;4.40;99.90;;;;;;5092591;28;19977;-50
2022/04/09 02:08:51;;;;;;;;;;;4.50;99.90;;;;;;5093372;28;20378;-48
2022/04/09 02:11:16;;;;;;;;;;;4.50;99.90;;;;;;5092451;28;20322;-50
2022/04/09 02:13:42;;;;;;;;;;;4.50;99.90;;;;;;5093256;28;19924;-49
2022/04/09 02:16:07;;;;;;;;;;;4.50;99.90;;;;;;5093058;28;19909;-50
2022/04/09 02:18:33;;;;;;;;;;;4.50;99.90;;;;;;5092382;28;19916;-48
2022/04/09 02:20:58;;;;;;;;;;;4.50;99.90;;;;;;5093056;28;19908;-48
2022/04/09 02:23:24;;;;;;;;;;;4.40;99.90;;;;;;5093068;28;20271;-52
2022/04/09 02:25:49;;;;;;;;;;;4.40;99.90;;;;;;5092324;28;20006;-50
2022/04/09 02:28:14;;;;;;;;;;;4.40;99.90;;;;;;5092986;28;19959;-51
2022/04/09 02:30:40;;;;;;;;;;;4.30;99.90;;;;;;5092956;28;19908;-49
2022/04/09 02:33:05;;;;;;;;;;;4.30;99.90;;;;;;5092160;28;19924;-52
2022/04/09 02:35:31;;;;;;;;;;;4.30;99.90;;;;;;5092623;28;19955;-49
2022/04/09 02:37:57;;;;;;;;;;;4.20;99.90;;;;;;5092970;28;20270;-48
2022/04/09 02:40:22;;;;;;;;;;;4.20;99.90;;;;;;5091978;28;20019;-49
2022/04/09 02:42:48;;;;;;;;;;;4.20;99.90;;;;;;5092652;28;20042;-52
2022/04/09 02:45:14;;;;;;;;;;;4.20;99.90;;;;;;5092735;28;20381;-50
2022/04/09 02:47:39;;;;;;;;;;;4.20;99.90;;;;;;5092098;28;19959;-51
2022/04/09 02:50:06;;;;;;;;;;;4.20;99.90;;;;;;5094595;28;20399;-49
2022/04/09 02:52:32;;;;;;;;;;;4.20;99.90;;;;;;5096927;28;19918;-49
2022/04/09 02:54:58;;;;;;;;;;;4.20;99.90;;;;;;5096149;28;20367;-47
2022/04/09 02:57:23;;;;;;;;;;;4.20;99.90;;;;;;5096853;28;19919;-50
2022/04/09 02:59:48;;;;;;;;;;;4.20;99.90;;;;;;5096728;28;19912;-51
2022/04/09 03:02:14;;;;;;;;;;;4.10;99.90;;;;;;5095953;28;19991;-49
2022/04/09 03:04:39;;;;;;;;;;;4.10;99.90;;;;;;5096691;28;20278;-50
2022/04/09 03:07:05;;;;;;;;;;;4.10;99.90;;;;;;5096707;28;20366;-49
2022/04/09 03:09:30;;;;;;;;;;;4.00;99.90;;;;;;5095469;28;20330;-50
2022/04/09 03:11:56;;;;;;;;;;;4.00;99.90;;;;;;5096399;28;19920;-52
2022/04/09 03:14:21;;;;;;;;;;;4.00;99.90;;;;;;5096528;28;19916;-50
2022/04/09 03:16:47;;;;;;;;;;;4.00;99.90;;;;;;5095770;28;20430;-47
2022/04/09 03:19:12;;;;;;;;;;;4.00;99.90;;;;;;5096628;28;20355;-49
2022/04/09 03:21:37;;;;;;;;;;;4.00;99.90;;;;;;5095800;28;20309;-49
2022/04/09 03:24:03;;;;;;;;;;;4.00;99.90;;;;;;5096481;28;20006;-49
2022/04/09 03:26:29;;;;;;;;;;;4.00;99.90;;;;;;5096285;28;19908;-47
2022/04/09 03:28:54;;;;;;;;;;;3.90;99.90;;;;;;5095569;28;19982;-51
2022/04/09 03:31:20;;;;;;;;;;;3.90;99.90;;;;;;5096378;28;19916;-52
2022/04/09 03:33:47;;;;;;;;;;;3.90;99.90;;;;;;5096163;28;19920;-49
2022/04/09 03:36:13;;;;;;;;;;;4.00;99.90;;;;;;5095169;28;20040;-49
2022/04/09 03:38:40;;;;;;;;;;;4.00;99.90;;;;;;5095846;28;19946;-48
2022/04/09 03:41:05;;;;;;;;;;;4.00;99.90;;;;;;5095970;28;19908;-46
2022/04/09 03:43:30;;;;;;;;;;;4.00;99.90;;;;;;5095240;28;20050;-49
2022/04/09 03:45:56;;;;;;;;;;;4.00;99.90;;;;;;5095892;28;19912;-49
2022/04/09 03:48:21;;;;;;;;;;;4.00;99.90;;;;;;5095882;28;19915;-49
2022/04/09 03:50:47;;;;;;;;;;;4.00;99.90;;;;;;5076958;28;19908;-48
2022/04/09 03:53:12;;;;;;;;;;;4.10;99.90;;;;;;5094763;28;19920;-50
2022/04/09 03:55:38;;;;;;;;;;;4.10;99.90;;;;;;5094774;28;19908;-47
2022/04/09 03:58:03;;;;;;;;;;;4.10;99.90;;;;;;5094063;28;20363;-48
2022/04/09 04:00:29;;;;;;;;;;;4.20;99.90;;;;;;5094102;28;19912;-48
2022/04/09 04:02:56;;;;;;;;;;;4.20;99.90;;;;;;5094292;28;19958;-51
2022/04/09 04:05:22;;;;;;;;;;;4.30;99.90;;;;;;5093987;28;19909;-48
2022/04/09 04:07:47;;;;;;;;;;;4.30;99.90;;;;;;5094669;28;19954;-49
2022/04/09 04:10:13;;;;;;;;;;;4.40;99.90;;;;;;5093880;28;19957;-47
2022/04/09 04:12:40;;;;;;;;;;;4.40;99.90;;;;;;5093791;28;19916;-47
2022/04/09 04:15:06;;;;;;;;;;;4.40;99.90;;;;;;5094444;28;19916;-50
2022/04/09 04:17:39;;;;;;;;;;;4.30;99.90;;;;;;5094506;28;19908;-51
2022/04/09 04:20:05;;;;;;;;;;;4.40;99.90;;;;;;5093826;28;19931;-46
2022/04/09 04:22:31;;;;;;;;;;;4.30;99.90;;;;;;5094264;28;20363;-47
2022/04/09 04:24:56;;;;;;;;;;;4.30;99.90;;;;;;5093571;28;19938;-49
2022/04/09 04:27:21;;;;;;;;;;;4.30;99.90;;;;;;5094161;28;19908;-52
2022/04/09 04:29:47;;;;;;;;;;;4.30;99.90;;;;;;5094338;28;19912;-51
2022/04/09 04:32:12;;;;;;;;;;;4.30;99.90;;;;;;5092978;28;19916;-50
2022/04/09 04:34:38;;;;;;;;;;;4.30;99.90;;;;;;5094060;28;19974;-48
2022/04/09 04:37:03;;;;;;;;;;;4.30;99.90;;;;;;5093820;28;19920;-51
2022/04/09 04:39:29;;;;;;;;;;;4.20;99.90;;;;;;5093093;28;19912;-47
2022/04/09 04:41:54;;;;;;;;;;;4.30;99.90;;;;;;5094056;28;20351;-49
2022/04/09 04:44:19;;;;;;;;;;;4.30;99.90;;;;;;5093798;28;20378;-47
2022/04/09 04:46:45;;;;;;;;;;;4.20;99.90;;;;;;5093165;28;20260;-50
2022/04/09 04:49:10;;;;;;;;;;;4.30;99.90;;;;;;5093990;28;20402;-47
2022/04/09 04:51:36;;;;;;;;;;;4.30;99.90;;;;;;5093801;28;20443;-51
2022/04/09 04:54:03;;;;;;;;;;;4.30;99.90;;;;;;5092787;28;20385;-48
2022/04/09 04:56:29;;;;;;;;;;;4.30;99.90;;;;;;5093972;28;19916;-48
2022/04/09 04:58:54;;;;;;;;;;;4.30;99.90;;;;;;5093763;28;20306;-51
2022/04/09 05:01:20;;;;;;;;;;;4.30;99.90;;;;;;5092996;28;19909;-51
2022/04/09 05:03:45;;;;;;;;;;;4.30;99.90;;;;;;5093098;28;19913;-47
2022/04/09 05:06:11;;;;;;;;;;;4.40;99.90;;;;;;5093552;28;19908;-51
2022/04/09 05:08:38;;;;;;;;;;;4.40;99.90;;;;;;5092560;28;20374;-49
2022/04/09 05:11:04;;;;;;;;;;;4.40;99.90;;;;;;5093167;28;20007;-51
2022/04/09 05:13:29;;;;;;;;;;;4.40;99.90;;;;;;5093205;28;20035;-48
2022/04/09 05:15:55;;;;;;;;;;;4.50;99.90;;;;;;5092658;28;19953;-47
2022/04/09 05:18:20;;;;;;;;;;;4.50;99.90;;;;;;5093274;28;19975;-51
2022/04/09 05:20:46;;;;;;;;;;;4.50;99.90;;;;;;5092812;28;19916;-47
2022/04/09 05:23:11;;;;;;;;;;;4.50;99.90;;;;;;5092252;28;19916;-49
2022/04/09 05:25:36;;;;;;;;;;;4.50;99.90;;;;;;5093044;28;19939;-49
2022/04/09 05:28:06;;;;;;;;;;;4.40;99.90;;;;;;5093178;28;20363;-48
2022/04/09 05:30:32;;;;;;;;;;;4.50;99.90;;;;;;5092656;28;19915;-47
2022/04/09 05:32:58;;;;;;;;;;;4.40;99.90;;;;;;5092122;28;20201;-47
2022/04/09 05:35:23;;;;;;;;;;;4.40;99.90;;;;;;5091527;28;20106;-47
2022/04/09 05:37:50;;;;;;;;;;;4.40;99.90;;;;;;5092910;28;19961;-48
2022/04/09 05:40:16;;;;;;;;;;;4.40;99.90;;;;;;5092773;28;20385;-49
2022/04/09 05:42:41;;;;;;;;;;;4.40;99.90;;;;;;5090320;28;19940;-47
2022/04/09 05:45:07;;;;;;;;;;;4.30;99.90;;;;;;5091478;28;19987;-46
2022/04/09 05:47:33;;;;;;;;;;;4.30;99.90;;;;;;5092613;28;19908;-46
2022/04/09 05:49:58;;;;;;;;;;;4.30;99.90;;;;;;5091967;28;20370;-48
2022/04/09 05:52:24;;;;;;;;;;;4.40;99.90;;;;;;5092465;28;19912;-50
2022/04/09 05:54:49;;;;;;;;;;;4.40;99.90;;;;;;5092805;28;19912;-50
2022/04/09 05:57:16;;;;;;;;;;;4.40;99.90;;;;;;5091677;28;20058;-47
2022/04/09 05:59:41;;;;;;;;;;;4.50;99.90;;;;;;5079308;28;19935;-52
2022/04/09 06:02:07;;;;;;;;;;;4.60;99.90;;;;;;5092050;28;20363;-47
2022/04/09 06:04:33;;;;;;;;;;;4.70;99.90;;;;;;5072197;28;19919;-50
2022/04/09 06:07:00;;;;;;;;;;;4.80;99.90;;;;;;5073107;28;20306;-48
2022/04/09 06:09:25;;;;;;;;;;;4.90;99.90;;;;;;5072994;28;19909;-48
2022/04/09 06:11:51;;;;;;;;;;;4.90;99.90;;;;;;5072238;28;19915;-48
2022/04/09 06:14:16;;;;;;;;;;;5.10;99.90;;;;;;5072807;28;20398;-48
2022/04/09 06:16:43;;;;;;;;;;;5.20;99.90;;;;;;5072902;28;19909;-51
2022/04/09 06:19:09;;;;;;;;;;;5.30;99.90;;;;;;5071995;28;19920;-49
2022/04/09 06:21:35;;;;;;;;;;;5.50;99.90;;;;;;5072497;28;19913;-51
2022/04/09 06:24:00;;;;;;;;;;;5.60;99.90;;;;;;5088862;28;20313;-50
2022/04/09 06:26:27;;;;;;;;;;;5.60;99.90;;;;;;5090591;28;19920;-47
2022/04/09 06:28:52;;;;;;;;;;;5.70;99.90;;;;;;5091510;28;19916;-52
2022/04/09 06:31:18;;;;;;;;;;;5.70;99.90;;;;;;5091054;28;19954;-47
2022/04/09 06:33:43;;;;;;;;;;;5.70;99.90;;;;;;5089926;28;19927;-52
2022/04/09 06:36:09;;;;;;;;;;;5.80;99.90;;;;;;5091133;28;20278;-47
2022/04/09 06:38:34;;;;;;;;;;;5.80;99.90;;;;;;5090471;28;19985;-49
2022/04/09 06:41:00;;;;;;;;;;;5.90;99.90;;;;;;5091195;28;19935;-53
2022/04/09 06:43:26;;;;;;;;;;;5.90;99.90;;;;;;5091148;28;19951;-48
2022/04/09 06:45:52;;;;;;;;;;;5.90;99.90;;;;;;5090457;28;20359;-48
2022/04/09 06:48:17;;;;;;;;;;;6.00;99.90;;;;;;5088152;28;19908;-49
2022/04/09 06:50:43;;;;;;;;;;;6.00;99.90;;;;;;5092396;28;20341;-48
2022/04/09 06:53:08;;;;;;;;;;;6.10;99.90;;;;;;5090150;28;20396;-49
2022/04/09 06:55:34;;;;;;;;;;;6.20;99.90;;;;;;5091032;28;19931;-50
2022/04/09 06:58:00;;;;;;;;;;;6.30;99.90;;;;;;5091034;28;19961;-48
2022/04/09 07:00:26;;;;;;;;;;;6.40;99.90;;;;;;5089867;28;19919;-46
2022/04/09 07:02:51;;;;;;;;;;;6.50;99.90;;;;;;5090410;28;19913;-50
2022/04/09 07:05:17;;;;;;;;;;;6.60;99.90;;;;;;5090303;28;19919;-47
2022/04/09 07:07:45;;;;;;;;;;;6.70;99.90;;;;;;5089465;28;19908;-49
2022/04/09 07:10:11;;;;;;;;;;;6.90;99.90;;;;;;5090249;28;20283;-49
2022/04/09 07:12:37;;;;;;;;;;;7.00;99.90;;;;;;5090145;28;19912;-50
2022/04/09 07:15:03;;;;;;;;;;;6.80;99.90;;;;;;5089749;28;19975;-52
2022/04/09 07:17:29;;;;;;;;;;;6.60;99.90;;;;;;5089789;28;19926;-52
2022/04/09 07:19:58;;;;;;;;;;;6.50;99.90;;;;;;5090224;28;19915;-48
2022/04/09 07:22:24;;;;;;;;;;;6.40;99.90;;;;;;5089549;28;19908;-49
2022/04/09 07:24:49;;;;;;;;;;;6.40;99.90;;;;;;5090032;28;20003;-48
2022/04/09 07:27:15;;;;;;;;;;;6.50;99.90;;;;;;5089798;28;19952;-50
2022/04/09 07:29:40;;;;;;;;;;;6.60;99.90;;;;;;5089314;28;19912;-48
2022/04/09 07:32:06;;;;;;;;;;;6.70;99.90;;;;;;5090190;28;19931;-51
2022/04/09 07:34:31;;;;;;;;;;;6.80;99.90;;;;;;5089326;28;19916;-49
2022/04/09 07:36:57;;;;;;;;;;;6.90;99.90;;;;;;5091949;28;20347;-48
2022/04/09 07:39:22;;;;;;;;;;;6.90;99.90;;;;;;5093766;28;19923;-49
2022/04/09 07:41:48;;;;;;;;;;;7.00;99.90;;;;;;5092861;28;19912;-49
2022/04/09 07:44:13;;;;;;;;;;;7.10;99.90;;;;;;5093401;28;19912;-49
2022/04/09 07:46:39;;;;;;;;;;;7.10;99.90;;;;;;5093479;28;20320;-50
2022/04/09 07:49:04;;;;;;;;;;;7.30;99.90;;;;;;5087105;28;19943;-49
2022/04/09 07:51:30;;;;;;;;;;;7.30;99.90;;;;;;5091932;28;19908;-50
2022/04/09 07:53:55;;;;;;;;;;;7.40;99.90;;;;;;5093927;28;19916;-49
2022/04/09 07:56:21;;;;;;;;;;;7.50;99.90;;;;;;5093688;28;19912;-50
2022/04/09 07:58:46;;;;;;;;;;;7.50;99.90;;;;;;5094408;28;19912;-47
2022/04/09 08:01:11;;;;;;;;;;;7.50;99.90;;;;;;5093917;28;19908;-50
2022/04/09 08:03:37;;;;;;;;;;;7.60;99.90;;;;;;5092672;28;19958;-52
2022/04/09 08:06:05;;;;;;;;;;;7.70;99.90;;;;;;5094044;28;20351;-50
2022/04/09 08:08:31;;;;;;;;;;;7.80;99.90;;;;;;5093509;28;19943;-48
2022/04/09 08:10:57;;;;;;;;;;;7.80;99.90;;;;;;5093445;28;19958;-49
2022/04/09 08:13:22;;;;;;;;;;;8.00;99.90;;;;;;5093873;28;19955;-48
2022/04/09 08:15:48;;;;;;;;;;;8.10;99.90;;;;;;5093596;28;19962;-49
2022/04/09 08:18:13;;;;;;;;;;;8.20;99.90;;;;;;5092988;28;20112;-48
2022/04/09 08:20:39;;;;;;;;;;;8.10;99.90;;;;;;5093673;28;20270;-48
2022/04/09 08:23:04;;;;;;;;;;;8.20;99.90;;;;;;5094144;28;19908;-46
2022/04/09 08:25:30;;;;;;;;;;;8.40;99.90;;;;;;5092480;28;20011;-54
2022/04/09 08:27:55;;;;;;;;;;;8.50;99.90;;;;;;5094291;28;19969;-49
2022/04/09 08:30:22;;;;;;;;;;;8.50;99.90;;;;;;5094618;28;19908;-50
2022/04/09 08:32:51;;;;;;;;;;;8.60;99.90;;;;;;5093552;28;20007;-49
2022/04/09 08:35:17;;;;;;;;;;;8.70;99.90;;;;;;5093716;28;19919;-51
2022/04/09 08:37:42;;;;;;;;;;;8.60;99.90;;;;;;5093724;28;19912;-49
2022/04/09 08:40:13;;;;;;;;;;;8.60;99.60;;;;;;5106078;28;19919;-48
2022/04/09 08:42:38;;;;;;;;;;;8.60;99.90;;;;;;5102328;28;19922;-49
2022/04/09 08:45:04;;;;;;;;;;;8.60;99.90;;;;;;5086920;28;19914;-56
2022/04/09 08:47:30;;;;;;;;;;;8.70;99.80;;;;;;5073466;28;19962;-50
2022/04/09 08:49:56;;;;;;;;;;;8.70;99.90;;;;;;5076626;28;19973;-48
2022/04/09 08:52:21;;;;;;;;;;;8.60;99.40;;;;;;5089951;28;19920;-51
2022/04/09 08:54:47;;;;;;;;;;;8.70;99.90;;;;;;5092293;28;19934;-48
2022/04/09 08:57:14;;;;;;;;;;;8.80;99.90;;;;;;5091746;28;20484;-53
2022/04/09 08:59:39;;;;;;;;;;;9.00;99.90;;;;;;5091985;28;19943;-49
2022/04/09 09:02:05;;;;;;;;;;;9.10;99.90;;;;;;5093585;28;20008;-49
2022/04/09 09:04:30;;;;;;;;;;;9.20;99.10;;;;;;5092546;28;20336;-50
2022/04/09 09:07:15;;;;;;;;;;;9.20;98.10;;;;;;5092353;28;19912;-49
2022/04/09 09:09:40;;;;;;;;;;;9.10;97.70;;;;;;5092967;28;19908;-51
2022/04/09 09:12:07;;;;;;;;;;;9.20;95.80;;;;;;5093201;28;19935;-49
2022/04/09 09:14:33;;;;;;;;;;;9.40;91.50;;;;;;5092682;28;19916;-50
2022/04/09 09:17:00;;;;;;;;;;;9.30;99.90;;;;;;5093792;28;19908;-48
2022/04/09 09:19:47;;;;;;;;;;;9.20;99.90;;;;;;5093458;28;19961;-54
2022/04/09 09:22:13;;;;;;;;;;;9.00;99.90;;;;;;5092454;28;20382;-49
2022/04/09 09:24:39;;;;;;;;;;;9.00;99.90;;;;;;5092478;28;19912;-50
2022/04/09 09:27:05;;;;;;;;;;;9.10;99.90;;;;;;5111580;28;19915;-51
2022/04/09 09:29:31;;;;;;;;;;;9.20;99.90;;;;;;5107944;28;19908;-52
2022/04/09 09:31:58;;;;;;;;;;;9.40;97.00;;;;;;5093455;28;19915;-51
2022/04/09 09:34:24;;;;;;;;;;;9.50;98.90;;;;;;5092564;28;19920;-54
2022/04/09 09:36:50;;;;;;;;;;;9.60;98.10;;;;;;5092790;28;20454;-50
2022/04/09 09:39:23;;;;;;;;;;;9.60;94.80;;;;;;5093071;28;19995;-48
2022/04/09 09:41:51;;;;;;;;;;;9.40;93.40;;;;;;5092273;28;19947;-56
2022/04/09 09:44:18;;;;;;;;;;;8.70;99.90;;;;;;5093405;28;19918;-57
2022/04/09 09:46:45;;;;;;;;;;;8.00;99.90;;;;;;5092611;28;19908;-56
2022/04/09 09:49:10;;;;;;;;;;;7.50;99.90;;;;;;5092274;28;19909;-53
2022/04/09 09:51:36;;;;;;;;;;;7.40;99.90;;;;;;5092675;28;19913;-50
2022/04/09 09:54:06;;;;;;;;;;;7.70;99.90;;;;;;5091331;28;20409;-54
2022/04/09 09:56:35;;;;;;;;;;;8.10;99.90;;;;;;5090032;28;19912;-53
2022/04/09 09:59:05;;;;;;;;;;;8.40;99.90;;;;;;5091184;28;19958;-53
2022/04/09 10:01:31;;;;;;;;;;;8.50;99.90;;;;;;5092208;28;19966;-55
2022/04/09 10:03:58;;;;;;;;;;;8.50;99.90;;;;;;5092205;28;19915;-54
2022/04/09 10:06:23;;;;;;;;;;;8.30;99.90;;;;;;5092746;28;19908;-54
2022/04/09 10:08:48;;;;;;;;;;;8.10;99.90;;;;;;5092577;28;19908;-52
2022/04/09 10:11:17;;;;;;;;;;;7.90;99.90;;;;;;5091946;28;20352;-54
2022/04/09 10:13:43;;;;;;;;;;;7.80;99.90;;;;;;5092330;28;19920;-57
2022/04/09 10:16:10;;;;;;;;;;;7.90;99.90;;;;;;5092506;28;19908;-54
2022/04/09 10:18:36;;;;;;;;;;;8.00;99.90;;;;;;5090466;28;20061;-54
2022/04/09 10:21:02;;;;;;;;;;;8.10;99.90;;;;;;5092780;28;20006;-55
2022/04/09 10:23:32;;;;;;;;;;;8.00;99.90;;;;;;5092232;28;20340;-56
2022/04/09 10:25:58;;;;;;;;;;;7.90;99.90;;;;;;5093163;28;19919;-52
2022/04/09 10:28:31;;;;;;;;;;;8.00;99.90;;;;;;5091319;28;19908;-51
2022/04/09 10:30:57;;;;;;;;;;;8.20;99.90;;;;;;5090501;28;20377;-54
2022/04/09 10:33:24;;;;;;;;;;;8.50;99.90;;;;;;5091190;28;20010;-51
2022/04/09 10:35:50;;;;;;;;;;;8.90;99.90;;;;;;5090806;28;19963;-55
2022/04/09 10:38:19;;;;;;;;;;;9.30;99.90;;;;;;5092435;28;19940;-55
2022/04/09 10:40:45;;;;;;;;;;;9.40;99.90;;;;;;5092611;28;19908;-57
2022/04/09 10:43:22;;;;;;;;;;;9.20;99.90;;;;;;5092523;28;20415;-56
2022/04/09 10:46:00;;;;;;;;;;;8.90;99.90;;;;;;5091930;28;20351;-58
2022/04/09 10:48:38;;;;;;;;;;;8.70;99.90;;;;;;5092753;28;20010;-51
2022/04/09 10:51:11;;;;;;;;;;;8.90;99.90;;;;;;5092475;28;20279;-56
2022/04/09 10:53:38;;;;;;;;;;;9.20;99.90;;;;;;5090858;28;19923;-56
2022/04/09 10:56:13;;;;;;;;;;;9.50;99.90;;;;;;5092236;28;19909;-56
2022/04/09 10:58:57;;;;;;;;;;;9.70;99.90;;;;;;5091923;28;19912;-54
2022/04/09 11:01:41;;;;;;;;;;;9.70;99.90;;;;;;5092046;28;19908;-54
2022/04/09 11:04:25;;;;;;;;;;;9.60;99.90;;;;;;5092084;28;20371;-53
2022/04/09 11:07:00;;;;;;;;;;;9.30;98.10;;;;;;5088903;28;19921;-52
2022/04/09 11:09:46;;;;;;;;;;;9.10;99.90;;;;;;5090140;28;19912;-49
2022/04/09 11:12:12;;;;;;;;;;;9.00;99.90;;;;;;5077603;28;19908;-53
2022/04/09 11:14:42;;;;;;;;;;;8.70;99.50;;;;;;5092911;28;19920;-53
2022/04/09 11:17:33;;;;;;;;;;;8.50;98.10;;;;;;5094411;28;19965;-54
2022/04/09 11:20:05;;;;;;;;;;;8.40;99.90;;;;;;5091839;28;19910;-53
2022/04/09 11:22:32;;;;;;;;;;;8.20;99.90;;;;;;5095443;28;20383;-54
2022/04/09 11:24:57;;;;;;;;;;;8.10;99.90;;;;;;5095877;28;19912;-49
2022/04/09 11:27:24;;;;;;;;;;;8.00;99.90;;;;;;5092434;28;19912;-50
2022/04/09 11:29:50;;;;;;;;;;;8.00;99.90;;;;;;5090069;28;20325;-53
2022/04/09 11:32:19;;;;;;;;;;;8.30;99.90;;;;;;5092130;28;19965;-56
2022/04/09 11:34:45;;;;;;;;;;;8.70;99.90;;;;;;5090044;28;19927;-53
2022/04/09 11:37:11;;;;;;;;;;;8.90;99.90;;;;;;5090804;28;19928;-55
2022/04/09 11:39:40;;;;;;;;;;;9.20;97.60;;;;;;5091202;28;19935;-52
2022/04/09 11:42:06;;;;;;;;;;;9.40;99.90;;;;;;5091930;28;19957;-53
2022/04/09 11:44:32;;;;;;;;;;;9.80;94.70;;;;;;5083818;28;19928;-53
2022/04/09 11:47:05;;;;;;;;;;;9.90;99.90;;;;;;5085141;28;19993;-54
2022/04/09 11:49:31;;;;;;;;;;;10.10;98.60;;;;;;5082496;28;19920;-55
2022/04/09 11:51:56;;;;;;;;;;;10.20;99.90;;;;;;5088262;28;19920;-53
2022/04/09 11:54:24;;;;;;;;;;;10.20;99.90;;;;;;5085100;28;20363;-55
2022/04/09 11:56:50;;;;;;;;;;;9.70;99.90;;;;;;5086495;28;19998;-48
2022/04/09 11:59:15;;;;;;;;;;;9.20;99.90;;;;;;5092680;28;20057;-47
2022/04/09 12:01:47;;;;;;;;;;;8.90;99.90;;;;;;5092793;28;19908;-47
2022/04/09 12:04:16;;;;;;;;;;;8.70;99.90;;;;;;5086454;28;19912;-48
2022/04/09 12:06:42;;;;;;;;;;;8.70;99.90;;;;;;5083890;28;19919;-49
2022/04/09 12:09:08;;;;;;;;;;;8.80;99.90;;;;;;5080196;28;20441;-48
2022/04/09 12:11:33;;;;;;;;;;;8.90;99.90;;;;;;5080397;28;20003;-47
2022/04/09 12:14:14;;;;;;;;;;;9.10;99.90;;;;;;5085748;28;20371;-47
2022/04/09 12:16:40;;;;;;;;;;;9.30;99.90;;;;;;5082872;28;19919;-48
2022/04/09 12:19:09;;;;;;;;;;;9.70;99.90;;;;;;5075010;28;19913;-48
2022/04/09 12:21:35;;;;;;;;;;;9.80;99.90;;;;;;5082210;28;19994;-48
2022/04/09 12:24:10;;;;;;;;;;;9.70;99.90;;;;;;5081932;28;19958;-48
2022/04/09 12:26:37;;;;;;;;;;;9.40;99.90;;;;;;5085074;28;20374;-48
2022/04/09 12:29:07;;;;;;;;;;;9.00;99.90;;;;;;5089227;28;19919;-49
2022/04/09 12:31:33;;;;;;;;;;;9.00;99.90;;;;;;5084608;28;19924;-48
2022/04/09 12:33:59;;;;;;;;;;;8.90;99.90;;;;;;5090053;28;19920;-50
2022/04/09 12:36:25;;;;;;;;;;;9.30;99.90;;;;;;5089324;28;20279;-50
2022/04/09 12:38:50;;;;;;;;;;;9.40;99.90;;;;;;5093530;28;20386;-50
2022/04/09 12:41:16;;;;;;;;;;;9.40;99.90;;;;;;5094317;28;20374;-53
2022/04/09 12:43:42;;;;;;;;;;;8.90;99.90;;;;;;5090790;28;19908;-52
2022/04/09 12:46:14;;;;;;;;;;;8.00;99.90;;;;;;5089963;28;19915;-50
2022/04/09 12:48:43;;;;;;;;;;;7.50;99.90;;;;;;5086061;28;19931;-51
2022/04/09 12:51:09;;;;;;;;;;;7.40;99.90;;;;;;5084082;28;20375;-49
2022/04/09 12:53:35;;;;;;;;;;;7.50;99.90;;;;;;5086463;28;20058;-58
2022/04/09 12:56:04;;;;;;;;;;;7.60;99.90;;;;;;5084595;28;19998;-52
2022/04/09 12:58:30;;;;;;;;;;;7.90;99.90;;;;;;5088437;28;20295;-57
2022/04/09 13:00:56;;;;;;;;;;;8.10;99.90;;;;;;5082143;28;20158;-52
2022/04/09 13:03:21;;;;;;;;;;;8.30;99.90;;;;;;5083072;28;19920;-51
2022/04/09 13:05:47;;;;;;;;;;;8.60;99.90;;;;;;5090754;28;19922;-51
2022/04/09 13:08:12;;;;;;;;;;;8.70;99.90;;;;;;5086104;28;19948;-51
2022/04/09 13:10:38;;;;;;;;;;;9.00;99.90;;;;;;5090236;28;19951;-51
2022/04/09 13:13:04;;;;;;;;;;;9.40;99.90;;;;;;5084897;28;20120;-52
2022/04/09 13:15:31;;;;;;;;;;;9.70;99.90;;;;;;5086220;28;19916;-52
2022/04/09 13:17:57;;;;;;;;;;;9.70;91.20;;;;;;5083897;28;20282;-48
2022/04/09 13:20:22;;;;;;;;;;;9.70;87.60;;;;;;5113222;28;19908;-50
2022/04/09 13:22:48;;;;;;;;;;;9.90;91.70;;;;;;5099696;28;19912;-50
2022/04/09 13:25:15;;;;;;;;;;;10.20;89.30;;;;;;5085701;28;19912;-49
2022/04/09 13:27:44;;;;;;;;;;;10.30;84.60;;;;;;5085841;28;19915;-49
2022/04/09 13:30:10;;;;;;;;;;;10.30;81.10;;;;;;5090048;28;19912;-52
2022/04/09 13:32:36;;;;;;;;;;;10.20;81.20;;;;;;5088233;28;19908;-50
2022/04/09 13:35:02;;;;;;;;;;;10.50;78.80;;;;;;5087781;28;19920;-50
2022/04/09 13:37:27;;;;;;;;;;;10.70;74.90;;;;;;5092664;28;19924;-52
2022/04/09 13:39:54;;;;;;;;;;;10.40;80.50;;;;;;5089857;28;19912;-52
2022/04/09 13:42:19;;;;;;;;;;;10.60;77.40;;;;;;5089224;28;19937;-54
2022/04/09 13:44:45;;;;;;;;;;;10.60;81.80;;;;;;5092515;28;19920;-52
2022/04/09 13:47:12;;;;;;;;;;;10.50;84.30;;;;;;5093086;28;19908;-53
2022/04/09 13:49:37;;;;;;;;;;;10.20;85.80;;;;;;5092012;28;19946;-51
2022/04/09 13:52:03;;;;;;;;;;;9.90;77.00;;;;;;5093034;28;19919;-49
2022/04/09 13:54:29;;;;;;;;;;;10.10;79.60;;;;;;5092156;28;19916;-49
2022/04/09 13:56:54;;;;;;;;;;;10.60;93.50;;;;;;5091655;28;20367;-51
2022/04/09 13:59:20;;;;;;;;;;;11.00;83.80;;;;;;5092843;28;20355;-51
2022/04/09 14:01:45;;;;;;;;;;;11.30;74.40;;;;;;5090356;28;19912;-50
2022/04/09 14:04:11;;;;;;;;;;;11.60;72.10;;;;;;5089457;28;19962;-51
2022/04/09 14:06:36;;;;;;;;;;;11.70;67.90;;;;;;5091517;28;19912;-50
2022/04/09 14:09:02;;;;;;;;;;;11.40;65.40;;;;;;5091987;28;19943;-51
2022/04/09 14:11:28;;;;;;;;;;;11.10;66.20;;;;;;5087872;28;19957;-51
2022/04/09 14:13:53;;;;;;;;;;;11.30;68.00;;;;;;5092155;28;19920;-52
2022/04/09 14:16:19;;;;;;;;;;;11.40;67.60;;;;;;5090388;28;19908;-50
2022/04/09 14:18:44;;;;;;;;;;;11.50;68.60;;;;;;5090495;28;20003;-53
2022/04/09 14:21:10;;;;;;;;;;;11.80;68.00;;;;;;5089937;28;19943;-51
2022/04/09 14:23:35;;;;;;;;;;;11.60;60.80;;;;;;5091543;28;19916;-51
2022/04/09 14:26:01;;;;;;;;;;;11.70;64.40;;;;;;5092021;28;19908;-52
2022/04/09 14:28:26;;;;;;;;;;;11.50;60.80;;;;;;5105129;28;19911;-50